LPPT/LIS METAR and TAF weather

Enter ICAO airport designator
Station Type Date Time Source
LPPT METAR 2022/06/30 13:30 UTC NOAA

LPPT 301330Z 36020KT CAVOK 22/06 Q1017


Station Type Date Time Source
LPPT Decoded METAR 2022/06/30 13:30 UTC NOAA

Lisboa / Portela, Portugal (LPPT) 38-46N 009-08W 123M
Jun 30, 2022 - 09:30 AM EDT / 2022.06.30 1330 UTC
Wind: from the N (360 degrees) at 23 MPH (20 KT):0
Visibility: greater than 7 mile(s):0
Temperature: 71 F (22 C)
Dew Point: 42 F (6 C)
Relative Humidity: 35%
Pressure (altimeter): 30.03 in. Hg (1017 hPa)
ob: LPPT 301330Z 36020KT CAVOK 22/06 Q1017
cycle: 13

Station Type Date Time Source
LPPT TAF 2022/06/30 12:18 UTC NOAA

TAF LPPT 301100Z 3012/0118 35015KT CAVOK
TEMPO 3012/3024 35020G30KT PROB30
TEMPO 3012/3021 34025G35KT
TEMPO 0112/0118 35020G30KT

Example: see airport list